Time;durP1;ratioP1;P1;durP2;ratioP2;P2;SDS_P1;SDS_P2;PMS_P1;PMS_P2;Temp;Humidity;BMP_temperature;BMP_pressure;BME280_temperature;BME280_humidity;BME280_pressure;Samples;Min_cycle;Max_cycle;Signal;HPM_P1;HPM_P2
2021/12/30 00:00:04;;;;;;;67.00;9.38;;;;;;;;;;5090992;28;20041;-61
2021/12/30 00:02:31;;;;;;;49.25;6.70;;;;;;;;;;5082816;28;20151;-60
2021/12/30 00:04:58;;;;;;;68.10;7.05;;;;;;;;;;5085463;28;20036;-61
2021/12/30 00:07:25;;;;;;;66.80;8.35;;;;;;;;;;5084831;28;20122;-61
2021/12/30 00:09:51;;;;;;;65.57;10.10;;;;;;;;;;5080010;28;20380;-60
2021/12/30 00:12:17;;;;;;;61.53;8.25;;;;;;;;;;5085135;28;20331;-60
2021/12/30 00:14:44;;;;;;;66.63;9.93;;;;;;;;;;5082012;28;20044;-60
2021/12/30 00:17:10;;;;;;;64.13;8.57;;;;;;;;;;5081821;28;20113;-60
2021/12/30 00:19:36;;;;;;;65.18;8.85;;;;;;;;;;5088884;28;20036;-61
2021/12/30 00:22:02;;;;;;;70.10;11.35;;;;;;;;;;5087402;28;20083;-61
2021/12/30 00:24:28;;;;;;;71.15;9.98;;;;;;;;;;5090092;28;20070;-61
2021/12/30 00:26:54;;;;;;;76.00;9.50;;;;;;;;;;5090504;28;20040;-60
2021/12/30 00:29:21;;;;;;;77.90;9.65;;;;;;;;;;5080145;28;20040;-60
2021/12/30 00:31:47;;;;;;;75.05;9.50;;;;;;;;;;5087054;28;20036;-60
2021/12/30 00:34:13;;;;;;;70.65;12.88;;;;;;;;;;5089903;28;20039;-60
2021/12/30 00:36:39;;;;;;;57.15;7.78;;;;;;;;;;5081115;28;20040;-60
2021/12/30 00:39:05;;;;;;;68.80;9.82;;;;;;;;;;5089167;28;20047;-60
2021/12/30 00:41:31;;;;;;;56.75;8.07;;;;;;;;;;5083994;28;20063;-60
2021/12/30 00:43:57;;;;;;;81.03;11.02;;;;;;;;;;5080134;28;20048;-60
2021/12/30 00:46:24;;;;;;;74.63;10.43;;;;;;;;;;5078479;28;20050;-60
2021/12/30 00:48:50;;;;;;;71.95;8.52;;;;;;;;;;5079205;28;20467;-60
2021/12/30 00:51:16;;;;;;;75.03;9.45;;;;;;;;;;5082301;28;20369;-60
2021/12/30 00:53:42;;;;;;;79.25;10.13;;;;;;;;;;5078700;28;20107;-60
2021/12/30 00:56:08;;;;;;;78.53;11.82;;;;;;;;;;5080605;28;20732;-61
2021/12/30 00:58:34;;;;;;;73.00;9.63;;;;;;;;;;5081098;28;20041;-60
2021/12/30 01:01:03;;;;;;;73.57;8.55;;;;;;;;;;5083111;28;20054;-61
2021/12/30 01:03:29;;;;;;;74.18;9.27;;;;;;;;;;5079935;28;20482;-60
2021/12/30 01:05:55;;;;;;;73.22;10.20;;;;;;;;;;5078116;28;20036;-60
2021/12/30 01:08:21;;;;;;;69.22;9.05;;;;;;;;;;5086349;28;20113;-62
2021/12/30 01:10:48;;;;;;;65.72;10.45;;;;;;;;;;5081225;28;20039;-60
2021/12/30 01:13:20;;;;;;;73.45;11.52;;;;;;;;;;5083024;28;20502;-60
2021/12/30 01:18:42;;;;;;;69.18;10.75;;;;;;;;;;5081235;28;20131;-60
2021/12/30 01:21:10;;;;;;;78.07;10.77;;;;;;;;;;5080273;28;20044;-60
2021/12/30 01:23:36;;;;;;;78.60;10.10;;;;;;;;;;5081357;28;20492;-60
2021/12/30 01:26:03;;;;;;;79.65;10.77;;;;;;;;;;5082595;28;20064;-60
2021/12/30 01:28:30;;;;;;;75.47;9.80;;;;;;;;;;5084401;28;20398;-60
2021/12/30 01:30:56;;;;;;;63.53;11.15;;;;;;;;;;5089373;28;20044;-60
2021/12/30 01:33:23;;;;;;;64.28;9.77;;;;;;;;;;5085755;28;20093;-60
2021/12/30 01:35:49;;;;;;;70.45;11.52;;;;;;;;;;5082278;28;20040;-60
2021/12/30 01:38:16;;;;;;;85.22;12.27;;;;;;;;;;5082088;28;20093;-61
2021/12/30 01:40:47;;;;;;;59.97;7.80;;;;;;;;;;5081056;28;20119;-61
2021/12/30 01:43:13;;;;;;;62.67;8.20;;;;;;;;;;5076043;28;20101;-60
2021/12/30 01:45:40;;;;;;;60.65;8.77;;;;;;;;;;5079556;28;20131;-60
2021/12/30 01:48:06;;;;;;;59.38;7.85;;;;;;;;;;5078877;28;20068;-60
2021/12/30 01:50:33;;;;;;;67.03;8.30;;;;;;;;;;5078341;28;20040;-60
2021/12/30 01:52:59;;;;;;;59.55;9.77;;;;;;;;;;5076424;28;20048;-60
2021/12/30 01:55:25;;;;;;;62.25;9.60;;;;;;;;;;5076440;28;20071;-60
2021/12/30 01:57:52;;;;;;;63.13;10.68;;;;;;;;;;5083923;28;20041;-61
2021/12/30 02:00:22;;;;;;;74.13;11.10;;;;;;;;;;5081609;28;20043;-60
2021/12/30 02:02:48;;;;;;;61.35;8.70;;;;;;;;;;5082296;28;20052;-60
2021/12/30 02:05:14;;;;;;;51.08;7.57;;;;;;;;;;5078934;28;20043;-60
2021/12/30 02:07:40;;;;;;;58.40;8.55;;;;;;;;;;5083998;28;20072;-61
2021/12/30 02:10:07;;;;;;;64.45;7.75;;;;;;;;;;5083904;28;20044;-60
2021/12/30 02:12:34;;;;;;;59.22;8.02;;;;;;;;;;5084586;28;20134;-60
2021/12/30 02:15:00;;;;;;;52.60;7.22;;;;;;;;;;5083858;28;20079;-60
2021/12/30 02:17:27;;;;;;;58.97;8.25;;;;;;;;;;5081526;28;20047;-60
2021/12/30 02:19:58;;;;;;;53.00;8.43;;;;;;;;;;5077436;28;20094;-60
2021/12/30 02:22:24;;;;;;;60.80;7.75;;;;;;;;;;5081246;28;20133;-61
2021/12/30 02:24:51;;;;;;;64.18;8.82;;;;;;;;;;5080575;28;20133;-60
2021/12/30 02:27:17;;;;;;;57.67;8.75;;;;;;;;;;5080026;28;20131;-61
2021/12/30 02:29:43;;;;;;;66.93;7.82;;;;;;;;;;5100460;28;20062;-60
2021/12/30 02:32:10;;;;;;;53.65;7.43;;;;;;;;;;5095132;28;20519;-61
2021/12/30 02:34:38;;;;;;;78.20;7.72;;;;;;;;;;5089294;28;20044;-60
2021/12/30 02:37:04;;;;;;;60.55;8.23;;;;;;;;;;5099221;27;20508;-60
2021/12/30 02:39:31;;;;;;;57.25;7.97;;;;;;;;;;5082633;28;20055;-61
2021/12/30 02:41:57;;;;;;;51.53;7.57;;;;;;;;;;5084597;28;20536;-60
2021/12/30 02:44:24;;;;;;;59.00;7.35;;;;;;;;;;5081663;28;20055;-60
2021/12/30 02:46:51;;;;;;;59.97;8.98;;;;;;;;;;5081064;28;20036;-60
2021/12/30 02:49:17;;;;;;;65.65;7.70;;;;;;;;;;5084509;28;20499;-61
2021/12/30 02:51:44;;;;;;;69.50;8.02;;;;;;;;;;5098277;27;20059;-60
2021/12/30 02:54:10;;;;;;;60.85;7.82;;;;;;;;;;5084915;28;20032;-60
2021/12/30 02:56:37;;;;;;;64.07;8.68;;;;;;;;;;5087376;28;20451;-61
2021/12/30 02:59:03;;;;;;;57.78;7.13;;;;;;;;;;5086006;28;20044;-60
2021/12/30 03:01:31;;;;;;;63.63;8.43;;;;;;;;;;5084403;28;20048;-60
2021/12/30 03:03:58;;;;;;;63.17;7.53;;;;;;;;;;5091453;27;20553;-61
2021/12/30 03:06:24;;;;;;;67.07;8.65;;;;;;;;;;5085404;28;20499;-60
2021/12/30 03:08:51;;;;;;;69.05;9.52;;;;;;;;;;5086947;28;20048;-60
2021/12/30 03:11:19;;;;;;;76.07;10.07;;;;;;;;;;5088977;28;20074;-60
2021/12/30 03:13:45;;;;;;;85.93;10.38;;;;;;;;;;5085607;28;20094;-60
2021/12/30 03:16:14;;;;;;;85.82;12.20;;;;;;;;;;5085008;28;20040;-60
2021/12/30 03:18:41;;;;;;;68.72;10.07;;;;;;;;;;5086312;28;20051;-60
2021/12/30 03:21:09;;;;;;;83.82;9.73;;;;;;;;;;5087229;28;20192;-61
2021/12/30 03:23:35;;;;;;;98.60;11.52;;;;;;;;;;5083791;28;20048;-61
2021/12/30 03:26:02;;;;;;;81.00;11.93;;;;;;;;;;5084762;28;20070;-61
2021/12/30 03:28:28;;;;;;;87.78;13.25;;;;;;;;;;5083951;28;20123;-60
2021/12/30 03:30:58;;;;;;;90.90;11.15;;;;;;;;;;5087264;28;20046;-60
2021/12/30 03:33:25;;;;;;;88.70;13.07;;;;;;;;;;5082977;28;20098;-60
2021/12/30 03:35:51;;;;;;;103.22;13.45;;;;;;;;;;5088026;28;20123;-60
2021/12/30 03:38:17;;;;;;;110.28;16.17;;;;;;;;;;5088355;28;20040;-60
2021/12/30 03:40:43;;;;;;;105.47;15.77;;;;;;;;;;5080997;28;20135;-61
2021/12/30 03:43:10;;;;;;;108.20;14.55;;;;;;;;;;5080811;28;20403;-60
2021/12/30 03:45:36;;;;;;;104.45;13.73;;;;;;;;;;5079949;28;20039;-61
2021/12/30 03:48:02;;;;;;;116.07;16.80;;;;;;;;;;5084363;28;20043;-61
2021/12/30 03:50:29;;;;;;;118.05;18.05;;;;;;;;;;5083884;28;20052;-60
2021/12/30 03:52:59;;;;;;;105.88;18.15;;;;;;;;;;5080935;28;20067;-61
2021/12/30 03:55:26;;;;;;;113.15;19.38;;;;;;;;;;5082606;28;20086;-61
2021/12/30 03:57:53;;;;;;;116.80;20.75;;;;;;;;;;5083231;28;20248;-60
2021/12/30 04:00:20;;;;;;;103.05;20.25;;;;;;;;;;5082936;28;20087;-61
2021/12/30 04:02:46;;;;;;;118.03;20.75;;;;;;;;;;5079830;28;20054;-60
2021/12/30 04:05:13;;;;;;;127.22;22.70;;;;;;;;;;5081401;28;20109;-61
2021/12/30 04:07:39;;;;;;;125.38;22.45;;;;;;;;;;5077983;28;20144;-61
2021/12/30 04:10:06;;;;;;;123.25;21.38;;;;;;;;;;5075038;28;20040;-60
2021/12/30 04:12:32;;;;;;;126.35;22.90;;;;;;;;;;5079505;28;20071;-60
2021/12/30 04:14:58;;;;;;;129.93;24.25;;;;;;;;;;5079224;28;20547;-61
2021/12/30 04:17:24;;;;;;;124.68;22.75;;;;;;;;;;5082287;28;20059;-60
2021/12/30 04:19:51;;;;;;;135.43;23.35;;;;;;;;;;5079177;28;20040;-60
2021/12/30 04:22:18;;;;;;;132.13;22.38;;;;;;;;;;5077440;28;20048;-60
2021/12/30 04:24:45;;;;;;;133.35;22.02;;;;;;;;;;5075597;28;20036;-61
2021/12/30 04:27:12;;;;;;;122.45;20.38;;;;;;;;;;5078728;28;20480;-61
2021/12/30 04:29:38;;;;;;;134.40;21.35;;;;;;;;;;5080740;28;20059;-60
2021/12/30 04:32:04;;;;;;;119.50;20.75;;;;;;;;;;5079443;28;20051;-61
2021/12/30 04:34:30;;;;;;;128.82;20.88;;;;;;;;;;5078608;28;20560;-60
2021/12/30 04:37:00;;;;;;;124.05;19.17;;;;;;;;;;5079512;28;20403;-61
2021/12/30 04:39:28;;;;;;;134.05;22.17;;;;;;;;;;5080093;28;20055;-60
2021/12/30 04:41:54;;;;;;;121.57;20.83;;;;;;;;;;5077595;28;20040;-61
2021/12/30 04:44:21;;;;;;;116.95;19.95;;;;;;;;;;5078677;28;20377;-60
2021/12/30 04:46:47;;;;;;;123.82;20.20;;;;;;;;;;5078875;28;20060;-60
2021/12/30 04:49:13;;;;;;;136.35;22.15;;;;;;;;;;5079042;28;20059;-61
2021/12/30 04:51:39;;;;;;;139.75;22.33;;;;;;;;;;5078094;28;21918;-61
2021/12/30 04:54:06;;;;;;;124.57;23.60;;;;;;;;;;5078023;28;20044;-61
2021/12/30 04:56:32;;;;;;;131.02;24.00;;;;;;;;;;5078083;28;20062;-61
2021/12/30 04:58:58;;;;;;;145.68;25.30;;;;;;;;;;5078127;28;20086;-61
2021/12/30 05:01:25;;;;;;;147.52;26.27;;;;;;;;;;5077398;28;20044;-61
2021/12/30 05:03:51;;;;;;;150.75;30.17;;;;;;;;;;5077300;28;20052;-61
2021/12/30 05:06:17;;;;;;;167.55;30.63;;;;;;;;;;5091431;27;20116;-61
2021/12/30 05:08:43;;;;;;;170.85;31.92;;;;;;;;;;5082851;28;20144;-61
2021/12/30 05:11:10;;;;;;;201.60;35.22;;;;;;;;;;5076891;28;20093;-61
2021/12/30 05:13:36;;;;;;;192.90;35.78;;;;;;;;;;5076847;28;20488;-61
2021/12/30 05:16:02;;;;;;;221.20;39.10;;;;;;;;;;5077319;28;20047;-61
2021/12/30 05:18:31;;;;;;;203.75;39.75;;;;;;;;;;5074328;28;20078;-61
2021/12/30 05:20:58;;;;;;;179.00;35.92;;;;;;;;;;5075874;28;20047;-61
2021/12/30 05:23:24;;;;;;;217.13;43.50;;;;;;;;;;5078444;28;20039;-61
2021/12/30 05:25:51;;;;;;;188.93;40.83;;;;;;;;;;5075204;28;20075;-61
2021/12/30 05:28:17;;;;;;;201.20;40.33;;;;;;;;;;5079913;28;20128;-61
2021/12/30 05:30:43;;;;;;;211.35;39.47;;;;;;;;;;5080436;28;20032;-60
2021/12/30 05:33:09;;;;;;;204.60;40.40;;;;;;;;;;5076473;28;20158;-61
2021/12/30 05:35:35;;;;;;;172.20;38.30;;;;;;;;;;5082874;28;20061;-61
2021/12/30 05:38:02;;;;;;;209.38;40.78;;;;;;;;;;5077651;28;20044;-61
2021/12/30 05:40:29;;;;;;;174.68;37.33;;;;;;;;;;5078718;28;20555;-61
2021/12/30 05:42:55;;;;;;;193.05;39.30;;;;;;;;;;5077395;28;20560;-60
2021/12/30 05:45:22;;;;;;;184.02;37.28;;;;;;;;;;5078590;28;20096;-61
2021/12/30 05:47:49;;;;;;;164.88;37.58;;;;;;;;;;5078482;28;20178;-61
2021/12/30 05:50:17;;;;;;;206.65;41.00;;;;;;;;;;5077220;28;20378;-61
2021/12/30 05:52:43;;;;;;;190.02;39.83;;;;;;;;;;5079434;28;20606;-61
2021/12/30 05:55:09;;;;;;;176.40;38.38;;;;;;;;;;5077312;28;20094;-60
2021/12/30 05:57:35;;;;;;;172.43;39.75;;;;;;;;;;5077611;28;20040;-61
2021/12/30 06:00:06;;;;;;;178.68;38.65;;;;;;;;;;5075340;28;20475;-61
2021/12/30 06:02:32;;;;;;;188.63;38.67;;;;;;;;;;5075079;28;20159;-61
2021/12/30 06:04:58;;;;;;;225.60;40.38;;;;;;;;;;5078169;28;20055;-61
2021/12/30 06:07:25;;;;;;;224.55;39.55;;;;;;;;;;5077186;28;20120;-61
2021/12/30 06:09:51;;;;;;;181.43;38.78;;;;;;;;;;5082329;28;20150;-61
2021/12/30 06:12:17;;;;;;;195.70;36.47;;;;;;;;;;5080575;28;20059;-61
2021/12/30 06:14:43;;;;;;;220.23;41.42;;;;;;;;;;5077687;28;20090;-60
2021/12/30 06:17:13;;;;;;;230.95;42.28;;;;;;;;;;5080427;28;20037;-61
2021/12/30 06:19:39;;;;;;;197.40;39.55;;;;;;;;;;5082205;28;20048;-61
2021/12/30 06:22:06;;;;;;;215.23;41.33;;;;;;;;;;5084678;28;20048;-61
2021/12/30 06:24:33;;;;;;;189.85;40.58;;;;;;;;;;5083387;28;20155;-61
2021/12/30 06:26:59;;;;;;;205.70;39.80;;;;;;;;;;5081110;28;20039;-61
2021/12/30 06:29:25;;;;;;;195.00;38.65;;;;;;;;;;5080266;28;20055;-61
2021/12/30 06:31:51;;;;;;;191.07;38.45;;;;;;;;;;5080145;28;20040;-61
2021/12/30 06:34:17;;;;;;;202.70;38.53;;;;;;;;;;5078128;28;20522;-61
2021/12/30 06:36:43;;;;;;;195.45;38.60;;;;;;;;;;5084424;28;20043;-61
2021/12/30 06:39:10;;;;;;;195.55;38.88;;;;;;;;;;5080560;28;20044;-61
2021/12/30 06:41:36;;;;;;;171.23;35.97;;;;;;;;;;5081150;28;20140;-60
2021/12/30 06:44:03;;;;;;;165.68;37.00;;;;;;;;;;5080643;28;20356;-60
2021/12/30 06:46:29;;;;;;;184.13;38.42;;;;;;;;;;5093238;28;20105;-61
2021/12/30 06:48:55;;;;;;;176.00;37.33;;;;;;;;;;5078591;28;20127;-61
2021/12/30 06:51:23;;;;;;;197.13;38.75;;;;;;;;;;5083439;28;20484;-61
2021/12/30 06:53:51;;;;;;;185.35;38.42;;;;;;;;;;5077527;28;20475;-61
2021/12/30 06:56:19;;;;;;;174.77;36.72;;;;;;;;;;5079202;28;20536;-60
2021/12/30 06:58:45;;;;;;;175.38;34.22;;;;;;;;;;5080770;28;20032;-61
2021/12/30 07:01:11;;;;;;;157.40;36.83;;;;;;;;;;5078742;28;20454;-61
2021/12/30 07:03:37;;;;;;;149.48;35.63;;;;;;;;;;5078434;28;20037;-61
2021/12/30 07:06:04;;;;;;;146.00;34.03;;;;;;;;;;5081463;28;20484;-61
2021/12/30 07:08:30;;;;;;;139.48;33.60;;;;;;;;;;5075342;28;20076;-61
2021/12/30 07:10:56;;;;;;;154.18;33.30;;;;;;;;;;5076920;28;20040;-60
2021/12/30 07:13:22;;;;;;;153.57;33.28;;;;;;;;;;5077721;28;20045;-61
2021/12/30 07:15:48;;;;;;;131.38;31.67;;;;;;;;;;5081702;28;20540;-61
2021/12/30 07:18:14;;;;;;;133.70;31.67;;;;;;;;;;5078849;28;20044;-61
2021/12/30 07:20:41;;;;;;;144.05;32.58;;;;;;;;;;5077074;28;20041;-61
2021/12/30 07:23:07;;;;;;;128.57;30.00;;;;;;;;;;5082693;28;20040;-61
2021/12/30 07:25:33;;;;;;;138.77;29.23;;;;;;;;;;5080591;28;20039;-61
2021/12/30 07:28:01;;;;;;;136.27;27.85;;;;;;;;;;5075493;28;20407;-61
2021/12/30 07:30:28;;;;;;;141.00;29.00;;;;;;;;;;5080141;28;20036;-61
2021/12/30 07:32:54;;;;;;;129.40;27.55;;;;;;;;;;5082138;28;20411;-65
2021/12/30 07:35:20;;;;;;;122.78;27.50;;;;;;;;;;5080828;28;20053;-61
2021/12/30 07:37:47;;;;;;;122.30;25.45;;;;;;;;;;5080863;28;20040;-61
2021/12/30 07:40:14;;;;;;;120.18;25.10;;;;;;;;;;5076486;28;20029;-61
2021/12/30 07:42:40;;;;;;;95.88;22.15;;;;;;;;;;5080327;28;20503;-61
2021/12/30 07:45:09;;;;;;;75.57;19.98;;;;;;;;;;5078676;28;20097;-62
2021/12/30 07:47:35;;;;;;;67.22;18.83;;;;;;;;;;5073912;28;20782;-61
2021/12/30 07:50:01;;;;;;;74.35;19.23;;;;;;;;;;5074892;28;20406;-62
2021/12/30 07:52:27;;;;;;;62.40;19.45;;;;;;;;;;5079803;28;20449;-62
2021/12/30 07:54:53;;;;;;;63.13;17.48;;;;;;;;;;5085116;28;20471;-61
2021/12/30 07:57:21;;;;;;;63.42;17.55;;;;;;;;;;5082329;28;20074;-62
2021/12/30 07:59:47;;;;;;;77.13;17.48;;;;;;;;;;5089197;28;20048;-62
2021/12/30 08:02:14;;;;;;;64.85;18.92;;;;;;;;;;5086604;28;20379;-62
2021/12/30 08:04:40;;;;;;;67.07;19.48;;;;;;;;;;5083262;28;20047;-62
2021/12/30 08:07:06;;;;;;;63.50;19.85;;;;;;;;;;5081146;28;20040;-62
2021/12/30 08:09:33;;;;;;;72.65;20.27;;;;;;;;;;5082219;28;20044;-61
2021/12/30 08:12:00;;;;;;;63.90;19.42;;;;;;;;;;5080679;28;20488;-62
2021/12/30 08:14:26;;;;;;;65.07;20.13;;;;;;;;;;5085355;28;20445;-62
2021/12/30 08:16:53;;;;;;;59.30;19.70;;;;;;;;;;5077732;28;20138;-62
2021/12/30 08:19:19;;;;;;;52.88;20.08;;;;;;;;;;5080100;28;20036;-62
2021/12/30 08:21:45;;;;;;;63.92;20.95;;;;;;;;;;5083799;28;20051;-62
2021/12/30 08:24:11;;;;;;;61.60;20.23;;;;;;;;;;5086340;28;20049;-62
2021/12/30 08:26:38;;;;;;;53.15;16.48;;;;;;;;;;5081753;28;20040;-62
2021/12/30 08:29:04;;;;;;;50.55;14.70;;;;;;;;;;5082267;28;20396;-62
2021/12/30 08:31:30;;;;;;;54.03;14.27;;;;;;;;;;5083755;28;20048;-63
2021/12/30 08:33:56;;;;;;;51.97;15.18;;;;;;;;;;5083254;28;20036;-62
2021/12/30 08:36:23;;;;;;;49.92;13.05;;;;;;;;;;5086429;28;20051;-62
2021/12/30 08:38:49;;;;;;;48.45;12.75;;;;;;;;;;5080661;28;20036;-61
2021/12/30 08:41:15;;;;;;;37.35;9.60;;;;;;;;;;5081626;28;20055;-62
2021/12/30 08:43:41;;;;;;;34.40;9.45;;;;;;;;;;5081485;28;20149;-61
2021/12/30 08:46:07;;;;;;;34.53;9.55;;;;;;;;;;5080125;28;20039;-62
2021/12/30 08:48:34;;;;;;;35.55;8.98;;;;;;;;;;5082435;28;20048;-61
2021/12/30 08:51:00;;;;;;;43.80;10.15;;;;;;;;;;5082570;28;20079;-62
2021/12/30 08:53:28;;;;;;;32.03;7.85;;;;;;;;;;5083700;28;20059;-62
2021/12/30 08:55:54;;;;;;;31.17;6.97;;;;;;;;;;5080198;28;20113;-62
2021/12/30 08:58:20;;;;;;;36.17;7.93;;;;;;;;;;5085080;28;20435;-62
2021/12/30 09:00:47;;;;;;;32.20;7.97;;;;;;;;;;5083565;28;20044;-61
2021/12/30 09:03:13;;;;;;;29.50;7.45;;;;;;;;;;5092611;27;20127;-62
2021/12/30 09:05:40;;;;;;;39.85;7.32;;;;;;;;;;5077314;28;20047;-61
2021/12/30 09:08:06;;;;;;;32.50;7.00;;;;;;;;;;5087078;28;20041;-62
2021/12/30 09:10:37;;;;;;;32.13;6.97;;;;;;;;;;5088331;28;20040;-63
2021/12/30 09:13:03;;;;;;;36.33;7.10;;;;;;;;;;5090471;27;20668;-62
2021/12/30 09:15:30;;;;;;;32.88;6.80;;;;;;;;;;5081377;28;20127;-61
2021/12/30 09:17:57;;;;;;;33.75;7.25;;;;;;;;;;5078537;28;21580;-61
2021/12/30 09:20:24;;;;;;;33.33;7.75;;;;;;;;;;5079157;28;20032;-62
2021/12/30 09:22:50;;;;;;;30.60;6.00;;;;;;;;;;5075474;28;20516;-61
2021/12/30 09:25:19;;;;;;;37.22;6.60;;;;;;;;;;5079764;28;20137;-62
2021/12/30 09:27:45;;;;;;;30.38;7.28;;;;;;;;;;5086066;28;20114;-62
2021/12/30 09:30:13;;;;;;;33.55;6.38;;;;;;;;;;5080437;28;20036;-62
2021/12/30 09:32:40;;;;;;;35.75;6.68;;;;;;;;;;5074428;28;20128;-62
2021/12/30 09:35:06;;;;;;;24.25;5.63;;;;;;;;;;5080508;28;20044;-62
2021/12/30 09:37:33;;;;;;;26.75;5.75;;;;;;;;;;5078580;28;20090;-62
2021/12/30 09:39:59;;;;;;;25.63;5.93;;;;;;;;;;5080281;28;20127;-62
2021/12/30 09:42:26;;;;;;;26.58;5.78;;;;;;;;;;5080994;28;20104;-62
2021/12/30 09:44:53;;;;;;;38.05;6.70;;;;;;;;;;5079870;28;20163;-62
2021/12/30 09:47:19;;;;;;;36.20;6.30;;;;;;;;;;5083964;28;20047;-61
2021/12/30 09:49:47;;;;;;;36.67;6.75;;;;;;;;;;5086482;28;20077;-62
2021/12/30 09:52:14;;;;;;;31.70;5.13;;;;;;;;;;5088349;28;20069;-62
2021/12/30 09:54:40;;;;;;;42.78;6.60;;;;;;;;;;5083281;28;20618;-62
2021/12/30 09:57:06;;;;;;;27.65;5.53;;;;;;;;;;5084957;28;20501;-62
2021/12/30 09:59:34;;;;;;;30.48;6.55;;;;;;;;;;5084388;28;20040;-62
2021/12/30 10:02:00;;;;;;;35.10;6.28;;;;;;;;;;5086593;28;20048;-63
2021/12/30 10:04:34;;;;;;;33.92;5.07;;;;;;;;;;5086362;28;20044;-62
2021/12/30 10:07:01;;;;;;;30.42;6.43;;;;;;;;;;5082879;28;20047;-62
2021/12/30 10:09:45;;;;;;;32.88;6.07;;;;;;;;;;5086178;28;20136;-62
2021/12/30 10:12:12;;;;;;;29.02;4.68;;;;;;;;;;5081471;28;20126;-62
2021/12/30 10:14:39;;;;;;;32.70;5.47;;;;;;;;;;5087295;28;20046;-62
2021/12/30 10:17:16;;;;;;;34.17;5.97;;;;;;;;;;5086470;28;20036;-63
2021/12/30 10:19:43;;;;;;;34.40;6.07;;;;;;;;;;5083432;28;20096;-61
2021/12/30 10:22:11;;;;;;;34.92;7.05;;;;;;;;;;5084305;28;20264;-62
2021/12/30 10:24:37;;;;;;;25.98;4.78;;;;;;;;;;5082584;28;20408;-61
2021/12/30 10:27:03;;;;;;;28.98;5.22;;;;;;;;;;5101114;28;20037;-62
2021/12/30 10:29:39;;;;;;;30.83;5.20;;;;;;;;;;5083665;28;20487;-64
2021/12/30 10:32:14;;;;;;;34.72;6.35;;;;;;;;;;5085647;28;20038;-68
2021/12/30 10:35:00;;;;;;;30.40;5.80;;;;;;;;;;5088790;28;20067;-62
2021/12/30 10:37:26;;;;;;;37.90;5.38;;;;;;;;;;5083817;28;20418;-61
2021/12/30 10:39:52;;;;;;;39.60;6.53;;;;;;;;;;5082887;28;20477;-62
2021/12/30 10:42:21;;;;;;;35.38;7.00;;;;;;;;;;5085397;28;20041;-61
2021/12/30 10:44:49;;;;;;;44.53;6.47;;;;;;;;;;5086624;28;20510;-62
2021/12/30 10:47:15;;;;;;;32.55;6.40;;;;;;;;;;5083713;28;20047;-62
2021/12/30 10:49:41;;;;;;;48.67;7.80;;;;;;;;;;5085171;28;20048;-62
2021/12/30 10:52:08;;;;;;;37.78;8.23;;;;;;;;;;5088469;28;20117;-62
2021/12/30 10:54:37;;;;;;;38.60;8.13;;;;;;;;;;5091486;28;20039;-63
2021/12/30 10:57:06;;;;;;;33.10;6.80;;;;;;;;;;5088597;28;20051;-62
2021/12/30 10:59:34;;;;;;;36.90;7.53;;;;;;;;;;5089157;28;20040;-62
2021/12/30 11:02:09;;;;;;;47.50;8.00;;;;;;;;;;5089847;28;20043;-62
2021/12/30 11:04:37;;;;;;;56.05;11.52;;;;;;;;;;5102101;27;20056;-62
2021/12/30 11:07:04;;;;;;;48.08;8.15;;;;;;;;;;5089050;28;20090;-62
2021/12/30 11:09:30;;;;;;;57.80;9.10;;;;;;;;;;5087608;28;20558;-62
2021/12/30 11:11:59;;;;;;;51.03;7.20;;;;;;;;;;5089043;28;20131;-62
2021/12/30 11:14:26;;;;;;;51.78;8.80;;;;;;;;;;5088620;28;20044;-62
2021/12/30 11:17:00;;;;;;;49.60;8.82;;;;;;;;;;5091276;28;20436;-62
2021/12/30 11:19:28;;;;;;;55.42;9.23;;;;;;;;;;5089892;28;20049;-62
2021/12/30 11:21:57;;;;;;;53.72;11.07;;;;;;;;;;5092097;28;20443;-62
2021/12/30 11:24:24;;;;;;;54.30;8.70;;;;;;;;;;5086210;28;20055;-62
2021/12/30 11:26:51;;;;;;;51.67;8.82;;;;;;;;;;5087862;28;20059;-62
2021/12/30 11:29:17;;;;;;;53.35;8.00;;;;;;;;;;5083266;28;20475;-61
2021/12/30 11:31:43;;;;;;;52.25;8.90;;;;;;;;;;5086830;28;20051;-62
2021/12/30 11:34:10;;;;;;;45.38;8.55;;;;;;;;;;5089724;28;20498;-62
2021/12/30 11:36:39;;;;;;;55.35;8.35;;;;;;;;;;5090913;28;20126;-61
2021/12/30 11:39:12;;;;;;;54.20;8.60;;;;;;;;;;5089257;28;20169;-63
2021/12/30 11:41:39;;;;;;;61.38;8.82;;;;;;;;;;5087939;28;20044;-62
2021/12/30 11:44:05;;;;;;;54.88;9.00;;;;;;;;;;5088303;28;20036;-63
2021/12/30 11:46:38;;;;;;;65.30;10.35;;;;;;;;;;5085194;28;20062;-62
2021/12/30 11:49:05;;;;;;;61.28;10.07;;;;;;;;;;5084809;28;20051;-63
2021/12/30 11:51:45;;;;;;;56.70;9.63;;;;;;;;;;5088445;28;20433;-62
2021/12/30 11:54:40;;;;;;;51.78;8.73;;;;;;;;;;5086135;28;20051;-62
2021/12/30 11:57:25;;;;;;;55.10;11.07;;;;;;;;;;5084275;28;20040;-62
2021/12/30 11:59:59;;;;;;;67.53;9.75;;;;;;;;;;5088503;28;20101;-63
2021/12/30 12:02:27;;;;;;;51.80;9.75;;;;;;;;;;5088639;28;20072;-62
2021/12/30 12:04:53;;;;;;;49.08;7.97;;;;;;;;;;5082785;28;20048;-62
2021/12/30 12:07:19;;;;;;;49.13;8.75;;;;;;;;;;5079719;28;20472;-62
2021/12/30 12:09:46;;;;;;;58.55;10.48;;;;;;;;;;5078110;28;20041;-62
2021/12/30 12:12:14;;;;;;;51.28;9.68;;;;;;;;;;5083293;28;20098;-63
2021/12/30 12:14:44;;;;;;;52.50;7.90;;;;;;;;;;5081707;28;20502;-62
2021/12/30 12:17:11;;;;;;;57.58;8.45;;;;;;;;;;5083315;28;20082;-62
2021/12/30 12:19:45;;;;;;;59.10;9.20;;;;;;;;;;5075625;28;20086;-62
2021/12/30 12:22:17;;;;;;;47.17;8.52;;;;;;;;;;5075387;28;20062;-62
2021/12/30 12:24:44;;;;;;;44.97;8.98;;;;;;;;;;5077049;28;20048;-62
2021/12/30 12:27:30;;;;;;;43.13;7.68;;;;;;;;;;5078296;28;20040;-62
2021/12/30 12:29:57;;;;;;;40.67;7.88;;;;;;;;;;5074445;28;20082;-62
2021/12/30 12:32:35;;;;;;;39.67;9.15;;;;;;;;;;5090951;28;20043;-62
2021/12/30 12:35:04;;;;;;;44.67;7.75;;;;;;;;;;5072805;28;20048;-62
2021/12/30 12:37:32;;;;;;;46.88;7.90;;;;;;;;;;5078371;28;20040;-62
2021/12/30 12:40:00;;;;;;;51.15;7.97;;;;;;;;;;5081296;28;20163;-62
2021/12/30 12:42:59;;;;;;;39.22;7.00;;;;;;;;;;5084860;28;20091;-62
2021/12/30 12:45:33;;;;;;;47.88;8.30;;;;;;;;;;5079672;28;20138;-62
2021/12/30 12:48:17;;;;;;;46.33;8.90;;;;;;;;;;5084062;28;20091;-62
2021/12/30 12:50:44;;;;;;;42.60;8.00;;;;;;;;;;5082869;28;20074;-62
2021/12/30 12:53:22;;;;;;;35.08;7.85;;;;;;;;;;5084660;28;20039;-62
2021/12/30 12:55:48;;;;;;;34.90;8.07;;;;;;;;;;5084485;28;20154;-62
2021/12/30 12:58:18;;;;;;;41.15;7.18;;;;;;;;;;5085811;28;20036;-62
2021/12/30 13:00:44;;;;;;;39.42;6.45;;;;;;;;;;5086074;28;20391;-62
2021/12/30 13:03:10;;;;;;;49.13;7.93;;;;;;;;;;5084434;28;20072;-62
2021/12/30 13:05:36;;;;;;;37.67;6.72;;;;;;;;;;5087496;28;20028;-62
2021/12/30 13:08:02;;;;;;;47.88;8.13;;;;;;;;;;5087383;28;20483;-62
2021/12/30 13:10:29;;;;;;;47.03;8.50;;;;;;;;;;5087517;28;20083;-62
2021/12/30 13:13:01;;;;;;;53.13;8.55;;;;;;;;;;5085324;28;20423;-62
2021/12/30 13:15:27;;;;;;;44.58;7.80;;;;;;;;;;5093130;28;20101;-62
2021/12/30 13:17:57;;;;;;;52.13;7.63;;;;;;;;;;5089177;28;20074;-62
2021/12/30 13:20:30;;;;;;;49.20;7.70;;;;;;;;;;5091959;28;20035;-62
2021/12/30 13:22:57;;;;;;;48.85;9.10;;;;;;;;;;5087974;28;20044;-62
2021/12/30 13:25:23;;;;;;;51.90;9.63;;;;;;;;;;5086606;28;20127;-62
2021/12/30 13:27:51;;;;;;;42.85;6.60;;;;;;;;;;5091851;28;20088;-61
2021/12/30 13:30:19;;;;;;;44.00;7.32;;;;;;;;;;5080701;28;20177;-62
2021/12/30 13:32:47;;;;;;;48.33;8.15;;;;;;;;;;5083747;28;20055;-62
2021/12/30 13:35:14;;;;;;;40.45;7.97;;;;;;;;;;5086363;28;20433;-62
2021/12/30 13:37:42;;;;;;;50.47;7.78;;;;;;;;;;5084526;28;20040;-62
2021/12/30 13:40:08;;;;;;;43.72;7.18;;;;;;;;;;5086170;28;20048;-62
2021/12/30 13:42:38;;;;;;;57.78;8.88;;;;;;;;;;5085563;28;20403;-62
2021/12/30 13:45:04;;;;;;;49.13;8.75;;;;;;;;;;5083705;28;20040;-62
2021/12/30 13:47:35;;;;;;;39.13;8.82;;;;;;;;;;5086109;28;20040;-62
2021/12/30 13:50:01;;;;;;;45.25;7.78;;;;;;;;;;5086630;28;20051;-62
2021/12/30 13:52:28;;;;;;;45.45;8.77;;;;;;;;;;5084469;28;20040;-62
2021/12/30 13:55:11;;;;;;;57.58;9.32;;;;;;;;;;5085656;28;20134;-62
2021/12/30 13:57:37;;;;;;;44.33;7.80;;;;;;;;;;5086676;28;20039;-62
2021/12/30 14:00:05;;;;;;;52.55;7.40;;;;;;;;;;5081522;28;20052;-62
2021/12/30 14:02:31;;;;;;;56.28;9.80;;;;;;;;;;5080502;28;20040;-62
2021/12/30 14:05:05;;;;;;;45.58;9.27;;;;;;;;;;5084333;28;20085;-62
2021/12/30 14:07:33;;;;;;;41.25;7.60;;;;;;;;;;5083044;28;20086;-62
2021/12/30 14:09:59;;;;;;;48.67;8.55;;;;;;;;;;5082317;28;20036;-62
2021/12/30 14:12:25;;;;;;;47.13;10.00;;;;;;;;;;5085321;28;20404;-62
2021/12/30 14:14:52;;;;;;;40.95;7.10;;;;;;;;;;5087262;28;20040;-62
2021/12/30 14:17:18;;;;;;;43.03;7.47;;;;;;;;;;5092676;28;20542;-62
2021/12/30 14:19:50;;;;;;;50.85;7.65;;;;;;;;;;5084556;28;20408;-62
2021/12/30 14:22:16;;;;;;;46.83;8.50;;;;;;;;;;5087391;28;20057;-62
2021/12/30 14:24:43;;;;;;;50.67;11.20;;;;;;;;;;5089253;28;20403;-63